sensor_id;sensor_type;location;lat;lon;timestamp;temperature;humidity
17956;DHT22;27666;51.498;11.966;2024-01-15T05:38:37;1.80;99.90
17956;DHT22;27666;51.498;11.966;2024-01-15T05:41:24;1.80;99.90
17956;DHT22;27666;51.498;11.966;2024-01-15T05:44:10;2.00;99.90
17956;DHT22;27666;51.498;11.966;2024-01-15T05:46:57;2.00;99.90
17956;DHT22;27666;51.498;11.966;2024-01-15T05:49:43;2.10;99.90
17956;DHT22;27666;51.498;11.966;2024-01-15T05:52:29;2.20;99.90
17956;DHT22;27666;51.498;11.966;2024-01-15T05:55:17;2.20;99.90
17956;DHT22;27666;51.498;11.966;2024-01-15T05:58:04;2.10;99.90
17956;DHT22;27666;51.498;11.966;2024-01-15T06:00:50;2.20;99.90
17956;DHT22;27666;51.498;11.966;2024-01-15T06:03:37;2.20;99.90
17956;DHT22;27666;51.498;11.966;2024-01-15T06:06:23;2.20;99.90
17956;DHT22;27666;51.498;11.966;2024-01-15T06:09:10;2.20;99.90
17956;DHT22;27666;51.498;11.966;2024-01-15T06:11:59;2.20;99.90
17956;DHT22;27666;51.498;11.966;2024-01-15T06:14:45;2.20;99.90
17956;DHT22;27666;51.498;11.966;2024-01-15T06:17:32;2.30;99.90
17956;DHT22;27666;51.498;11.966;2024-01-15T06:20:18;2.20;99.90
17956;DHT22;27666;51.498;11.966;2024-01-15T06:23:04;2.30;99.90
17956;DHT22;27666;51.498;11.966;2024-01-15T06:25:51;2.20;99.90
17956;DHT22;27666;51.498;11.966;2024-01-15T06:28:39;2.10;99.90
17956;DHT22;27666;51.498;11.966;2024-01-15T06:31:26;2.10;99.90
17956;DHT22;27666;51.498;11.966;2024-01-15T06:34:12;2.10;99.90
17956;DHT22;27666;51.498;11.966;2024-01-15T06:36:59;2.20;99.90
17956;DHT22;27666;51.498;11.966;2024-01-15T06:39:45;2.20;99.90
17956;DHT22;27666;51.498;11.966;2024-01-15T06:42:32;2.20;99.90
17956;DHT22;27666;51.498;11.966;2024-01-15T06:45:20;2.20;99.90
17956;DHT22;27666;51.498;11.966;2024-01-15T06:48:07;2.20;99.90
17956;DHT22;27666;51.498;11.966;2024-01-15T06:50:53;2.10;99.90
17956;DHT22;27666;51.498;11.966;2024-01-15T06:53:40;2.10;99.90
17956;DHT22;27666;51.498;11.966;2024-01-15T06:56:27;2.00;99.90
17956;DHT22;27666;51.498;11.966;2024-01-15T06:59:13;2.10;99.90
17956;DHT22;27666;51.498;11.966;2024-01-15T07:02:05;2.10;99.90
17956;DHT22;27666;51.498;11.966;2024-01-15T15:26:06;3.30;99.90
17956;DHT22;27666;51.498;11.966;2024-01-15T15:28:54;3.20;99.90
17956;DHT22;27666;51.498;11.966;2024-01-15T15:31:40;3.30;99.90
17956;DHT22;27666;51.498;11.966;2024-01-15T15:34:27;3.30;99.90
17956;DHT22;27666;51.498;11.966;2024-01-15T15:37:14;3.40;99.90
17956;DHT22;27666;51.498;11.966;2024-01-15T15:40:04;3.50;99.90
17956;DHT22;27666;51.498;11.966;2024-01-15T15:42:55;3.40;99.90
17956;DHT22;27666;51.498;11.966;2024-01-15T15:45:42;3.50;99.90
17956;DHT22;27666;51.498;11.966;2024-01-15T15:48:29;3.50;99.90
17956;DHT22;27666;51.498;11.966;2024-01-15T15:51:17;3.40;99.90
17956;DHT22;27666;51.498;11.966;2024-01-15T15:54:04;3.40;99.90
17956;DHT22;27666;51.498;11.966;2024-01-15T15:56:51;3.30;99.90
17956;DHT22;27666;51.498;11.966;2024-01-15T15:59:41;3.30;99.90
17956;DHT22;27666;51.498;11.966;2024-01-15T16:02:27;3.30;99.90
17956;DHT22;27666;51.498;11.966;2024-01-15T16:05:17;3.30;99.90
17956;DHT22;27666;51.498;11.966;2024-01-15T16:08:04;3.30;99.90
17956;DHT22;27666;51.498;11.966;2024-01-15T16:10:53;3.40;99.90
17956;DHT22;27666;51.498;11.966;2024-01-15T16:13:40;3.30;99.90
17956;DHT22;27666;51.498;11.966;2024-01-15T16:16:28;3.40;99.90
17956;DHT22;27666;51.498;11.966;2024-01-15T16:19:35;3.40;99.90
17956;DHT22;27666;51.498;11.966;2024-01-15T16:22:41;3.30;99.90
17956;DHT22;27666;51.498;11.966;2024-01-15T16:25:48;3.20;99.90
17956;DHT22;27666;51.498;11.966;2024-01-15T16:28:36;3.20;99.90
17956;DHT22;27666;51.498;11.966;2024-01-15T16:31:22;3.30;99.90
17956;DHT22;27666;51.498;11.966;2024-01-15T16:34:10;3.20;99.90
17956;DHT22;27666;51.498;11.966;2024-01-15T16:36:58;3.30;99.90
17956;DHT22;27666;51.498;11.966;2024-01-15T16:39:44;3.30;99.90
17956;DHT22;27666;51.498;11.966;2024-01-15T16:42:31;3.30;99.90
17956;DHT22;27666;51.498;11.966;2024-01-15T16:45:17;3.30;99.90
17956;DHT22;27666;51.498;11.966;2024-01-15T16:48:05;3.30;99.90
17956;DHT22;27666;51.498;11.966;2024-01-15T16:50:53;3.20;99.90
17956;DHT22;27666;51.498;11.966;2024-01-15T16:53:40;3.30;99.90
17956;DHT22;27666;51.498;11.966;2024-01-15T16:56:26;3.20;99.90
17956;DHT22;27666;51.498;11.966;2024-01-15T16:59:13;3.20;99.90
17956;DHT22;27666;51.498;11.966;2024-01-15T17:01:59;3.10;99.90
17956;DHT22;27666;51.498;11.966;2024-01-15T17:04:46;3.10;99.90
17956;DHT22;27666;51.498;11.966;2024-01-15T17:07:34;3.20;99.90
17956;DHT22;27666;51.498;11.966;2024-01-15T17:10:20;3.20;99.90
17956;DHT22;27666;51.498;11.966;2024-01-15T17:13:07;3.30;99.90
17956;DHT22;27666;51.498;11.966;2024-01-15T17:15:54;3.30;99.90
17956;DHT22;27666;51.498;11.966;2024-01-15T17:18:41;3.20;99.90
17956;DHT22;27666;51.498;11.966;2024-01-15T17:21:27;3.20;99.90
17956;DHT22;27666;51.498;11.966;2024-01-15T17:24:16;3.20;99.90
17956;DHT22;27666;51.498;11.966;2024-01-15T17:27:03;3.20;99.90
17956;DHT22;27666;51.498;11.966;2024-01-15T17:29:49;3.20;99.90
17956;DHT22;27666;51.498;11.966;2024-01-15T17:32:37;3.20;99.90
17956;DHT22;27666;51.498;11.966;2024-01-15T17:35:24;3.20;99.90
17956;DHT22;27666;51.498;11.966;2024-01-15T17:38:11;3.20;99.90
17956;DHT22;27666;51.498;11.966;2024-01-15T17:40:58;3.20;99.90
17956;DHT22;27666;51.498;11.966;2024-01-15T17:43:45;3.20;99.90
17956;DHT22;27666;51.498;11.966;2024-01-15T17:46:32;3.10;99.90
17956;DHT22;27666;51.498;11.966;2024-01-15T17:49:18;3.10;99.90
17956;DHT22;27666;51.498;11.966;2024-01-15T17:52:05;3.00;99.90
17956;DHT22;27666;51.498;11.966;2024-01-15T17:54:51;3.10;99.90
17956;DHT22;27666;51.498;11.966;2024-01-15T17:57:39;3.00;99.90
17956;DHT22;27666;51.498;11.966;2024-01-15T18:00:26;3.00;99.90
17956;DHT22;27666;51.498;11.966;2024-01-15T18:03:12;3.00;99.90
17956;DHT22;27666;51.498;11.966;2024-01-15T18:05:59;3.00;99.90
17956;DHT22;27666;51.498;11.966;2024-01-15T18:08:45;3.00;99.90
17956;DHT22;27666;51.498;11.966;2024-01-15T18:11:32;3.10;99.90
17956;DHT22;27666;51.498;11.966;2024-01-15T18:14:20;3.00;99.90
17956;DHT22;27666;51.498;11.966;2024-01-15T18:17:08;3.20;99.90
17956;DHT22;27666;51.498;11.966;2024-01-15T18:19:54;3.10;99.90
17956;DHT22;27666;51.498;11.966;2024-01-15T18:22:41;3.10;99.90
17956;DHT22;27666;51.498;11.966;2024-01-15T18:25:29;3.20;99.90
17956;DHT22;27666;51.498;11.966;2024-01-15T18:28:16;3.10;99.90
17956;DHT22;27666;51.498;11.966;2024-01-15T18:31:04;3.20;99.90
17956;DHT22;27666;51.498;11.966;2024-01-15T18:33:51;3.20;99.90
17956;DHT22;27666;51.498;11.966;2024-01-15T18:36:37;3.20;99.90
17956;DHT22;27666;51.498;11.966;2024-01-15T18:39:25;3.20;99.90
17956;DHT22;27666;51.498;11.966;2024-01-15T18:42:12;3.20;99.90
17956;DHT22;27666;51.498;11.966;2024-01-15T18:44:59;3.30;99.90
17956;DHT22;27666;51.498;11.966;2024-01-15T18:47:46;3.10;99.90
17956;DHT22;27666;51.498;11.966;2024-01-15T18:50:33;3.10;99.90
17956;DHT22;27666;51.498;11.966;2024-01-15T18:53:20;3.10;99.90
17956;DHT22;27666;51.498;11.966;2024-01-15T18:56:06;3.10;99.90
17956;DHT22;27666;51.498;11.966;2024-01-15T18:58:53;2.90;99.90
17956;DHT22;27666;51.498;11.966;2024-01-15T19:01:40;2.90;99.90
17956;DHT22;27666;51.498;11.966;2024-01-15T19:04:28;2.90;99.90
17956;DHT22;27666;51.498;11.966;2024-01-15T19:07:14;3.00;99.90
17956;DHT22;27666;51.498;11.966;2024-01-15T19:10:01;3.00;99.90
17956;DHT22;27666;51.498;11.966;2024-01-15T19:12:48;3.20;99.90
17956;DHT22;27666;51.498;11.966;2024-01-15T19:15:35;3.20;99.90
17956;DHT22;27666;51.498;11.966;2024-01-15T19:18:22;3.30;99.90
17956;DHT22;27666;51.498;11.966;2024-01-15T19:21:10;3.10;99.90
17956;DHT22;27666;51.498;11.966;2024-01-15T19:23:57;3.10;99.90
17956;DHT22;27666;51.498;11.966;2024-01-15T19:26:43;3.10;99.90
17956;DHT22;27666;51.498;11.966;2024-01-15T19:29:29;3.10;99.90
17956;DHT22;27666;51.498;11.966;2024-01-15T19:32:16;3.20;99.90
17956;DHT22;27666;51.498;11.966;2024-01-15T19:35:03;3.00;99.90
17956;DHT22;27666;51.498;11.966;2024-01-15T19:37:51;2.90;99.90
17956;DHT22;27666;51.498;11.966;2024-01-15T19:40:38;2.90;99.90
17956;DHT22;27666;51.498;11.966;2024-01-15T19:43:24;2.80;99.90
17956;DHT22;27666;51.498;11.966;2024-01-15T19:46:11;2.80;99.90
17956;DHT22;27666;51.498;11.966;2024-01-15T19:48:57;2.80;99.90
17956;DHT22;27666;51.498;11.966;2024-01-15T19:51:44;2.70;99.90
17956;DHT22;27666;51.498;11.966;2024-01-15T19:54:33;2.80;99.90
17956;DHT22;27666;51.498;11.966;2024-01-15T19:57:19;2.80;99.90
17956;DHT22;27666;51.498;11.966;2024-01-15T20:00:07;2.80;99.90
17956;DHT22;27666;51.498;11.966;2024-01-15T20:02:56;2.80;99.90
17956;DHT22;27666;51.498;11.966;2024-01-15T20:05:42;2.60;99.90
17956;DHT22;27666;51.498;11.966;2024-01-15T20:08:29;2.70;99.90
17956;DHT22;27666;51.498;11.966;2024-01-15T20:11:18;2.80;99.90
17956;DHT22;27666;51.498;11.966;2024-01-15T20:14:05;2.80;99.90
17956;DHT22;27666;51.498;11.966;2024-01-15T20:16:52;2.70;99.90
17956;DHT22;27666;51.498;11.966;2024-01-15T20:19:39;2.90;99.90
17956;DHT22;27666;51.498;11.966;2024-01-15T20:22:26;2.80;99.90
17956;DHT22;27666;51.498;11.966;2024-01-15T20:25:14;2.80;99.90
17956;DHT22;27666;51.498;11.966;2024-01-15T20:28:02;2.80;99.90
17956;DHT22;27666;51.498;11.966;2024-01-15T20:30:51;2.80;99.90
17956;DHT22;27666;51.498;11.966;2024-01-15T20:33:38;2.90;99.90
